sensor_id;sensor_type;location;lat;lon;timestamp;pressure;altitude;pressure_sealevel;temperature;humidity
68871;BME280;55906;52.278;6.808;2022-12-08T00:00:02;100940.97;;;3.47;87.23
68871;BME280;55906;52.278;6.808;2022-12-08T00:02:29;100929.34;;;3.41;87.30
68871;BME280;55906;52.278;6.808;2022-12-08T00:04:55;100927.72;;;3.43;87.36
68871;BME280;55906;52.278;6.808;2022-12-08T00:07:39;100928.44;;;3.40;87.86
68871;BME280;55906;52.278;6.808;2022-12-08T00:10:23;100924.84;;;3.38;88.42
68871;BME280;55906;52.278;6.808;2022-12-08T00:12:50;100922.34;;;3.40;88.46
68871;BME280;55906;52.278;6.808;2022-12-08T00:15:18;100918.94;;;3.41;87.93
68871;BME280;55906;52.278;6.808;2022-12-08T00:17:44;100911.78;;;3.37;88.44
68871;BME280;55906;52.278;6.808;2022-12-08T00:20:11;100910.63;;;3.32;88.68
68871;BME280;55906;52.278;6.808;2022-12-08T00:22:38;100903.97;;;3.37;88.42
68871;BME280;55906;52.278;6.808;2022-12-08T00:25:05;100912.59;;;3.36;88.71
68871;BME280;55906;52.278;6.808;2022-12-08T00:27:32;100896.81;;;3.33;88.76
68871;BME280;55906;52.278;6.808;2022-12-08T00:29:58;100895.94;;;3.32;89.43
68871;BME280;55906;52.278;6.808;2022-12-08T00:32:26;100894.38;;;3.36;89.17
68871;BME280;55906;52.278;6.808;2022-12-08T00:34:53;100885.78;;;3.37;89.07
68871;BME280;55906;52.278;6.808;2022-12-08T00:37:19;100882.19;;;3.35;89.71
68871;BME280;55906;52.278;6.808;2022-12-08T00:39:46;100882.28;;;3.36;89.54
68871;BME280;55906;52.278;6.808;2022-12-08T00:42:13;100884.16;;;3.39;89.85
68871;BME280;55906;52.278;6.808;2022-12-08T00:44:43;100875.88;;;3.46;89.83
68871;BME280;55906;52.278;6.808;2022-12-08T00:47:10;100888.22;;;3.50;89.33
68871;BME280;55906;52.278;6.808;2022-12-08T00:49:39;100882.53;;;3.57;89.53
68871;BME280;55906;52.278;6.808;2022-12-08T00:52:06;100878.41;;;3.61;89.06
68871;BME280;55906;52.278;6.808;2022-12-08T00:54:32;100877.75;;;3.65;89.06
68871;BME280;55906;52.278;6.808;2022-12-08T00:56:59;100874.44;;;3.67;89.23
68871;BME280;55906;52.278;6.808;2022-12-08T00:59:26;100875.22;;;3.66;89.08
68871;BME280;55906;52.278;6.808;2022-12-08T01:01:52;100865.88;;;3.70;88.93
68871;BME280;55906;52.278;6.808;2022-12-08T01:04:19;100865.16;;;3.72;88.32
68871;BME280;55906;52.278;6.808;2022-12-08T01:06:48;100863.69;;;3.77;88.43
68871;BME280;55906;52.278;6.808;2022-12-08T01:09:16;100860.44;;;3.81;88.88
68871;BME280;55906;52.278;6.808;2022-12-08T01:11:43;100859.69;;;3.84;88.40
68871;BME280;55906;52.278;6.808;2022-12-08T01:14:10;100854.75;;;3.89;88.04
68871;BME280;55906;52.278;6.808;2022-12-08T01:16:36;100857.53;;;3.92;88.03
68871;BME280;55906;52.278;6.808;2022-12-08T01:19:05;100854.03;;;3.91;87.84
68871;BME280;55906;52.278;6.808;2022-12-08T01:21:32;100846.13;;;3.90;88.17
68871;BME280;55906;52.278;6.808;2022-12-08T01:24:00;100840.91;;;3.90;87.97
68871;BME280;55906;52.278;6.808;2022-12-08T01:26:27;100852.25;;;3.90;87.84
68871;BME280;55906;52.278;6.808;2022-12-08T01:28:54;100852.31;;;3.92;87.99
68871;BME280;55906;52.278;6.808;2022-12-08T01:31:21;100848.03;;;3.92;87.38
68871;BME280;55906;52.278;6.808;2022-12-08T01:33:48;100853.22;;;3.92;87.70
68871;BME280;55906;52.278;6.808;2022-12-08T01:36:19;100851.59;;;3.94;87.61
68871;BME280;55906;52.278;6.808;2022-12-08T01:38:46;100857.69;;;3.95;87.58
68871;BME280;55906;52.278;6.808;2022-12-08T01:41:15;100855.91;;;3.94;87.23
68871;BME280;55906;52.278;6.808;2022-12-08T01:43:55;100848.03;;;3.92;87.14
68871;BME280;55906;52.278;6.808;2022-12-08T01:46:22;100855.81;;;3.92;87.47
68871;BME280;55906;52.278;6.808;2022-12-08T01:48:50;100853.03;;;3.89;87.36
68871;BME280;55906;52.278;6.808;2022-12-08T01:51:18;100849.44;;;3.87;87.66
68871;BME280;55906;52.278;6.808;2022-12-08T01:53:45;100847.59;;;3.84;87.79
68871;BME280;55906;52.278;6.808;2022-12-08T01:56:17;100841.03;;;3.91;87.54
68871;BME280;55906;52.278;6.808;2022-12-08T01:58:47;100837.19;;;3.84;88.09
68871;BME280;55906;52.278;6.808;2022-12-08T02:01:15;100831.25;;;3.87;87.78
68871;BME280;55906;52.278;6.808;2022-12-08T02:03:46;100834.75;;;3.88;87.99
68871;BME280;55906;52.278;6.808;2022-12-08T02:06:14;100841.72;;;3.89;88.08
68871;BME280;55906;52.278;6.808;2022-12-08T02:08:42;100840.28;;;3.94;88.10
68871;BME280;55906;52.278;6.808;2022-12-08T02:11:10;100837.78;;;3.95;87.60
68871;BME280;55906;52.278;6.808;2022-12-08T02:13:39;100826.84;;;3.86;87.96
68871;BME280;55906;52.278;6.808;2022-12-08T02:16:11;100836.53;;;3.89;88.14
68871;BME280;55906;52.278;6.808;2022-12-08T02:18:52;100825.66;;;3.96;88.16
68871;BME280;55906;52.278;6.808;2022-12-08T02:21:28;100820.38;;;3.94;88.40
68871;BME280;55906;52.278;6.808;2022-12-08T02:24:04;100823.88;;;3.95;88.07
68871;BME280;55906;52.278;6.808;2022-12-08T02:26:56;100818.75;;;3.96;88.59
68871;BME280;55906;52.278;6.808;2022-12-08T02:35:34;100806.31;;;3.91;88.84
68871;BME280;55906;52.278;6.808;2022-12-08T02:38:08;100796.78;;;3.91;89.07
68871;BME280;55906;52.278;6.808;2022-12-08T02:40:43;100797.75;;;3.93;88.77
68871;BME280;55906;52.278;6.808;2022-12-08T02:43:19;100797.03;;;3.96;89.32
68871;BME280;55906;52.278;6.808;2022-12-08T02:45:51;100792.72;;;3.96;89.35
68871;BME280;55906;52.278;6.808;2022-12-08T02:48:20;100783.19;;;3.97;88.83
68871;BME280;55906;52.278;6.808;2022-12-08T02:50:48;100784.09;;;3.97;89.09
68871;BME280;55906;52.278;6.808;2022-12-08T02:53:14;100771.97;;;3.98;89.21
68871;BME280;55906;52.278;6.808;2022-12-08T02:55:46;100779.19;;;4.03;89.24
68871;BME280;55906;52.278;6.808;2022-12-08T02:58:41;100771.47;;;4.05;89.13
68871;BME280;55906;52.278;6.808;2022-12-08T03:01:23;100763.00;;;4.09;88.86
68871;BME280;55906;52.278;6.808;2022-12-08T03:04:01;100760.00;;;4.01;89.23
68871;BME280;55906;52.278;6.808;2022-12-08T03:06:33;100767.38;;;4.10;89.02
68871;BME280;55906;52.278;6.808;2022-12-08T03:09:09;100757.13;;;4.13;89.11
68871;BME280;55906;52.278;6.808;2022-12-08T03:11:43;100754.53;;;4.13;89.12
68871;BME280;55906;52.278;6.808;2022-12-08T03:14:16;100762.25;;;4.11;89.15
68871;BME280;55906;52.278;6.808;2022-12-08T03:16:44;100752.72;;;4.12;89.18
68871;BME280;55906;52.278;6.808;2022-12-08T03:19:14;100747.69;;;4.15;89.38
68871;BME280;55906;52.278;6.808;2022-12-08T03:21:49;100735.63;;;4.17;89.59
68871;BME280;55906;52.278;6.808;2022-12-08T03:24:17;100740.97;;;4.20;89.15
68871;BME280;55906;52.278;6.808;2022-12-08T03:26:47;100727.16;;;4.21;89.53
68871;BME280;55906;52.278;6.808;2022-12-08T03:29:15;100729.81;;;4.23;89.54
68871;BME280;55906;52.278;6.808;2022-12-08T03:31:47;100727.97;;;4.20;89.33
68871;BME280;55906;52.278;6.808;2022-12-08T03:34:16;100729.09;;;4.25;89.33
68871;BME280;55906;52.278;6.808;2022-12-08T03:36:45;100718.66;;;4.25;89.14
68871;BME280;55906;52.278;6.808;2022-12-08T03:39:11;100716.38;;;4.31;89.13
68871;BME280;55906;52.278;6.808;2022-12-08T03:41:39;100716.59;;;4.36;89.04
68871;BME280;55906;52.278;6.808;2022-12-08T03:44:05;100714.94;;;4.38;89.25
68871;BME280;55906;52.278;6.808;2022-12-08T03:46:32;100698.28;;;4.34;89.20
68871;BME280;55906;52.278;6.808;2022-12-08T03:48:59;100712.28;;;4.36;89.20
68871;BME280;55906;52.278;6.808;2022-12-08T03:51:25;100703.72;;;4.39;89.13
68871;BME280;55906;52.278;6.808;2022-12-08T03:53:53;100702.00;;;4.39;88.98
68871;BME280;55906;52.278;6.808;2022-12-08T03:56:23;100704.59;;;4.39;89.16
68871;BME280;55906;52.278;6.808;2022-12-08T03:58:50;100692.63;;;4.43;88.86
68871;BME280;55906;52.278;6.808;2022-12-08T04:01:17;100691.88;;;4.45;88.83
68871;BME280;55906;52.278;6.808;2022-12-08T04:03:43;100695.38;;;4.46;88.83
68871;BME280;55906;52.278;6.808;2022-12-08T04:06:10;100694.53;;;4.47;88.78
68871;BME280;55906;52.278;6.808;2022-12-08T04:08:37;100699.91;;;4.50;88.81
68871;BME280;55906;52.278;6.808;2022-12-08T04:11:05;100700.03;;;4.53;88.88
68871;BME280;55906;52.278;6.808;2022-12-08T04:13:32;100700.94;;;4.54;88.84
68871;BME280;55906;52.278;6.808;2022-12-08T04:15:58;100708.00;;;4.56;88.51
68871;BME280;55906;52.278;6.808;2022-12-08T04:18:25;100701.81;;;4.54;88.66
68871;BME280;55906;52.278;6.808;2022-12-08T04:20:51;100714.19;;;4.58;88.36
68871;BME280;55906;52.278;6.808;2022-12-08T04:23:18;100704.22;;;4.49;88.95
68871;BME280;55906;52.278;6.808;2022-12-08T04:25:45;100702.34;;;4.47;89.59
68871;BME280;55906;52.278;6.808;2022-12-08T04:28:13;100697.09;;;4.45;89.32
68871;BME280;55906;52.278;6.808;2022-12-08T04:30:40;100703.78;;;4.40;89.30
68871;BME280;55906;52.278;6.808;2022-12-08T04:33:07;100693.38;;;4.40;89.22
68871;BME280;55906;52.278;6.808;2022-12-08T04:35:33;100682.59;;;4.33;89.80
68871;BME280;55906;52.278;6.808;2022-12-08T04:38:00;100685.41;;;4.37;89.91
68871;BME280;55906;52.278;6.808;2022-12-08T04:40:27;100686.44;;;4.41;90.04
68871;BME280;55906;52.278;6.808;2022-12-08T04:42:53;100683.84;;;4.41;90.05
68871;BME280;55906;52.278;6.808;2022-12-08T04:45:21;100678.78;;;4.44;90.16
68871;BME280;55906;52.278;6.808;2022-12-08T04:47:48;100685.84;;;4.46;89.90
68871;BME280;55906;52.278;6.808;2022-12-08T04:50:14;100671.09;;;4.47;90.12
68871;BME280;55906;52.278;6.808;2022-12-08T04:52:41;100676.25;;;4.45;90.09
68871;BME280;55906;52.278;6.808;2022-12-08T04:55:08;100677.97;;;4.45;90.50
68871;BME280;55906;52.278;6.808;2022-12-08T04:57:35;100675.22;;;4.42;90.65
68871;BME280;55906;52.278;6.808;2022-12-08T05:00:03;100674.31;;;4.41;90.90
68871;BME280;55906;52.278;6.808;2022-12-08T05:02:31;100673.50;;;4.42;90.31
68871;BME280;55906;52.278;6.808;2022-12-08T05:04:58;100662.19;;;4.42;90.40
68871;BME280;55906;52.278;6.808;2022-12-08T05:07:25;100668.50;;;4.47;90.75
68871;BME280;55906;52.278;6.808;2022-12-08T05:09:52;100665.91;;;4.47;90.83
68871;BME280;55906;52.278;6.808;2022-12-08T05:12:18;100658.97;;;4.47;90.76
68871;BME280;55906;52.278;6.808;2022-12-08T05:14:45;100655.56;;;4.48;90.74
68871;BME280;55906;52.278;6.808;2022-12-08T05:17:12;100655.41;;;4.45;90.83
68871;BME280;55906;52.278;6.808;2022-12-08T05:19:40;100664.19;;;4.47;90.86
68871;BME280;55906;52.278;6.808;2022-12-08T05:22:07;100659.78;;;4.46;90.88
68871;BME280;55906;52.278;6.808;2022-12-08T05:24:33;100665.81;;;4.45;91.01
68871;BME280;55906;52.278;6.808;2022-12-08T05:27:00;100665.97;;;4.48;90.67
68871;BME280;55906;52.278;6.808;2022-12-08T05:29:27;100660.75;;;4.48;90.72
68871;BME280;55906;52.278;6.808;2022-12-08T05:31:54;100669.41;;;4.47;90.85
68871;BME280;55906;52.278;6.808;2022-12-08T05:34:20;100653.91;;;4.50;90.58
68871;BME280;55906;52.278;6.808;2022-12-08T05:36:48;100650.34;;;4.48;90.81
68871;BME280;55906;52.278;6.808;2022-12-08T05:39:15;100655.47;;;4.47;90.96
68871;BME280;55906;52.278;6.808;2022-12-08T05:41:41;100649.44;;;4.48;90.67
68871;BME280;55906;52.278;6.808;2022-12-08T05:44:08;100653.91;;;4.50;90.70
68871;BME280;55906;52.278;6.808;2022-12-08T05:46:35;100649.44;;;4.48;90.87
68871;BME280;55906;52.278;6.808;2022-12-08T05:49:02;100650.34;;;4.48;90.97
68871;BME280;55906;52.278;6.808;2022-12-08T05:51:29;100650.34;;;4.48;90.70
68871;BME280;55906;52.278;6.808;2022-12-08T05:53:57;100646.09;;;4.50;90.75
68871;BME280;55906;52.278;6.808;2022-12-08T05:56:24;100644.53;;;4.54;90.88
68871;BME280;55906;52.278;6.808;2022-12-08T05:58:50;100648.97;;;4.57;90.88
68871;BME280;55906;52.278;6.808;2022-12-08T06:01:19;100633.22;;;4.54;90.53
68871;BME280;55906;52.278;6.808;2022-12-08T06:03:45;100649.06;;;4.58;90.76
68871;BME280;55906;52.278;6.808;2022-12-08T06:06:12;100641.72;;;4.49;90.37
68871;BME280;55906;52.278;6.808;2022-12-08T06:08:38;100638.56;;;4.57;90.47
68871;BME280;55906;52.278;6.808;2022-12-08T06:11:07;100640.34;;;4.58;90.60
68871;BME280;55906;52.278;6.808;2022-12-08T06:13:34;100636.91;;;4.59;90.31
68871;BME280;55906;52.278;6.808;2022-12-08T06:16:03;100644.72;;;4.59;90.18
68871;BME280;55906;52.278;6.808;2022-12-08T06:18:29;100638.44;;;4.54;90.45
68871;BME280;55906;52.278;6.808;2022-12-08T06:21:01;100637.75;;;4.58;90.22
68871;BME280;55906;52.278;6.808;2022-12-08T06:23:27;100636.84;;;4.57;90.20
68871;BME280;55906;52.278;6.808;2022-12-08T06:25:54;100638.56;;;4.57;90.05
68871;BME280;55906;52.278;6.808;2022-12-08T06:28:22;100644.66;;;4.57;89.78
68871;BME280;55906;52.278;6.808;2022-12-08T06:30:48;100649.06;;;4.58;90.07
68871;BME280;55906;52.278;6.808;2022-12-08T06:33:15;100651.31;;;4.50;89.73
68871;BME280;55906;52.278;6.808;2022-12-08T06:35:42;100644.38;;;4.51;89.96
68871;BME280;55906;52.278;6.808;2022-12-08T06:38:08;100645.34;;;4.53;89.73
68871;BME280;55906;52.278;6.808;2022-12-08T06:40:35;100656.78;;;4.57;89.81
68871;BME280;55906;52.278;6.808;2022-12-08T06:43:01;100646.31;;;4.55;89.57
68871;BME280;55906;52.278;6.808;2022-12-08T06:45:30;100652.94;;;4.48;89.34
68871;BME280;55906;52.278;6.808;2022-12-08T06:47:56;100653.47;;;4.41;89.70
68871;BME280;55906;52.278;6.808;2022-12-08T06:50:23;100656.22;;;4.44;89.21
68871;BME280;55906;52.278;6.808;2022-12-08T06:52:49;100653.47;;;4.41;89.23
68871;BME280;55906;52.278;6.808;2022-12-08T06:55:16;100654.44;;;4.43;89.00
68871;BME280;55906;52.278;6.808;2022-12-08T06:57:43;100654.16;;;4.37;89.18
68871;BME280;55906;52.278;6.808;2022-12-08T07:00:10;100648.13;;;4.38;88.84
68871;BME280;55906;52.278;6.808;2022-12-08T07:02:40;100653.34;;;4.38;88.95
68871;BME280;55906;52.278;6.808;2022-12-08T07:05:07;100658.41;;;4.35;88.91
68871;BME280;55906;52.278;6.808;2022-12-08T07:07:34;100653.06;;;4.32;89.05
68871;BME280;55906;52.278;6.808;2022-12-08T07:10:00;100660.03;;;4.33;88.79
68871;BME280;55906;52.278;6.808;2022-12-08T07:12:27;100661.69;;;4.31;89.22
68871;BME280;55906;52.278;6.808;2022-12-08T07:14:54;100660.03;;;4.33;89.27
68871;BME280;55906;52.278;6.808;2022-12-08T07:17:20;100656.47;;;4.31;89.12
68871;BME280;55906;52.278;6.808;2022-12-08T07:19:48;100668.75;;;4.34;89.03
68871;BME280;55906;52.278;6.808;2022-12-08T07:22:15;100663.47;;;4.32;88.95
68871;BME280;55906;52.278;6.808;2022-12-08T07:24:41;100666.00;;;4.31;89.12
68871;BME280;55906;52.278;6.808;2022-12-08T07:27:08;100663.31;;;4.29;88.86
68871;BME280;55906;52.278;6.808;2022-12-08T07:29:34;100665.09;;;4.30;88.88
68871;BME280;55906;52.278;6.808;2022-12-08T07:32:01;100670.47;;;4.33;88.94
68871;BME280;55906;52.278;6.808;2022-12-08T07:34:28;100673.81;;;4.31;88.89
68871;BME280;55906;52.278;6.808;2022-12-08T07:36:55;100677.31;;;4.31;89.21
68871;BME280;55906;52.278;6.808;2022-12-08T07:39:22;100674.72;;;4.31;88.96
68871;BME280;55906;52.278;6.808;2022-12-08T07:41:49;100676.41;;;4.31;89.06
68871;BME280;55906;52.278;6.808;2022-12-08T07:44:15;100680.06;;;4.34;88.76
68871;BME280;55906;52.278;6.808;2022-12-08T07:46:42;100674.91;;;4.36;88.84
68871;BME280;55906;52.278;6.808;2022-12-08T07:49:08;100666.16;;;4.34;89.12
68871;BME280;55906;52.278;6.808;2022-12-08T07:51:35;100669.84;;;4.39;88.85
68871;BME280;55906;52.278;6.808;2022-12-08T07:54:03;100682.81;;;4.37;88.74
68871;BME280;55906;52.278;6.808;2022-12-08T07:56:30;100674.91;;;4.36;89.15
68871;BME280;55906;52.278;6.808;2022-12-08T07:58:56;100675.75;;;4.35;88.62
68871;BME280;55906;52.278;6.808;2022-12-08T08:01:25;100690.19;;;4.28;88.76
68871;BME280;55906;52.278;6.808;2022-12-08T08:03:53;100674.63;;;4.30;89.12
68871;BME280;55906;52.278;6.808;2022-12-08T08:06:20;100672.69;;;4.26;88.70
68871;BME280;55906;52.278;6.808;2022-12-08T08:08:47;100679.91;;;4.31;88.66
68871;BME280;55906;52.278;6.808;2022-12-08T08:11:15;100676.63;;;4.35;88.42
68871;BME280;55906;52.278;6.808;2022-12-08T08:13:41;100680.19;;;4.37;88.25
68871;BME280;55906;52.278;6.808;2022-12-08T08:16:09;100687.72;;;4.31;88.59
68871;BME280;55906;52.278;6.808;2022-12-08T08:18:38;100700.06;;;4.35;88.58
68871;BME280;55906;52.278;6.808;2022-12-08T08:21:05;100700.81;;;4.33;88.19
68871;BME280;55906;52.278;6.808;2022-12-08T08:23:32;100705.41;;;4.38;88.16
68871;BME280;55906;52.278;6.808;2022-12-08T08:25:59;100704.59;;;4.39;88.05
68871;BME280;55906;52.278;6.808;2022-12-08T08:28:28;100704.44;;;4.36;88.41
68871;BME280;55906;52.278;6.808;2022-12-08T08:30:55;100705.28;;;4.35;88.46
68871;BME280;55906;52.278;6.808;2022-12-08T08:33:22;100704.38;;;4.35;88.42
68871;BME280;55906;52.278;6.808;2022-12-08T08:35:48;100700.97;;;4.36;88.11
68871;BME280;55906;52.278;6.808;2022-12-08T08:38:15;100701.03;;;4.37;88.05
68871;BME280;55906;52.278;6.808;2022-12-08T08:40:41;100697.59;;;4.38;88.15
68871;BME280;55906;52.278;6.808;2022-12-08T08:43:08;100703.56;;;4.36;88.34
68871;BME280;55906;52.278;6.808;2022-12-08T08:45:55;100702.81;;;4.38;87.95
68871;BME280;55906;52.278;6.808;2022-12-08T08:48:21;100701.84;;;4.36;88.18
68871;BME280;55906;52.278;6.808;2022-12-08T08:50:48;100701.72;;;4.33;88.53
68871;BME280;55906;52.278;6.808;2022-12-08T08:53:14;100707.06;;;4.36;88.07
68871;BME280;55906;52.278;6.808;2022-12-08T08:55:41;100699.41;;;4.39;87.57
68871;BME280;55906;52.278;6.808;2022-12-08T08:58:08;100699.41;;;4.39;87.98
68871;BME280;55906;52.278;6.808;2022-12-08T09:00:34;100702.81;;;4.38;87.83
68871;BME280;55906;52.278;6.808;2022-12-08T09:03:02;100702.75;;;4.37;87.59
68871;BME280;55906;52.278;6.808;2022-12-08T09:05:29;100703.94;;;4.43;87.60
68871;BME280;55906;52.278;6.808;2022-12-08T09:07:55;100702.34;;;4.47;87.46
68871;BME280;55906;52.278;6.808;2022-12-08T09:10:22;100705.84;;;4.47;87.23
68871;BME280;55906;52.278;6.808;2022-12-08T09:12:48;100708.47;;;4.47;87.49
68871;BME280;55906;52.278;6.808;2022-12-08T09:15:15;100707.84;;;4.53;86.91
68871;BME280;55906;52.278;6.808;2022-12-08T09:17:44;100706.50;;;4.61;87.62
68871;BME280;55906;52.278;6.808;2022-12-08T09:20:12;100707.25;;;4.59;87.30
68871;BME280;55906;52.278;6.808;2022-12-08T09:22:39;100701.09;;;4.57;86.88
68871;BME280;55906;52.278;6.808;2022-12-08T09:25:06;100707.19;;;4.57;87.20
68871;BME280;55906;52.278;6.808;2022-12-08T09:27:33;100707.19;;;4.57;87.16
68871;BME280;55906;52.278;6.808;2022-12-08T09:29:59;100695.72;;;4.54;87.10
68871;BME280;55906;52.278;6.808;2022-12-08T09:32:26;100697.38;;;4.52;87.26
68871;BME280;55906;52.278;6.808;2022-12-08T09:34:52;100697.09;;;4.45;87.31
68871;BME280;55906;52.278;6.808;2022-12-08T09:37:20;100692.91;;;4.49;87.52
68871;BME280;55906;52.278;6.808;2022-12-08T09:39:47;100690.53;;;4.54;86.81
68871;BME280;55906;52.278;6.808;2022-12-08T09:42:17;100685.38;;;4.55;86.35
68871;BME280;55906;52.278;6.808;2022-12-08T09:44:51;100686.81;;;4.48;86.11
68871;BME280;55906;52.278;6.808;2022-12-08T09:47:24;100689.47;;;4.50;86.33
68871;BME280;55906;52.278;6.808;2022-12-08T09:49:58;100686.94;;;4.52;86.30
68871;BME280;55906;52.278;6.808;2022-12-08T09:52:31;100677.84;;;4.61;86.18
68871;BME280;55906;52.278;6.808;2022-12-08T09:55:02;100685.75;;;4.63;86.03
68871;BME280;55906;52.278;6.808;2022-12-08T09:57:35;100673.38;;;4.59;85.24
68871;BME280;55906;52.278;6.808;2022-12-08T10:00:05;100676.97;;;4.61;84.88
68871;BME280;55906;52.278;6.808;2022-12-08T10:02:32;100671.97;;;4.65;84.89
68871;BME280;55906;52.278;6.808;2022-12-08T10:04:59;100674.91;;;4.73;84.98
68871;BME280;55906;52.278;6.808;2022-12-08T10:07:33;100677.72;;;4.77;84.72
68871;BME280;55906;52.278;6.808;2022-12-08T10:10:09;100682.13;;;4.78;83.76
68871;BME280;55906;52.278;6.808;2022-12-08T10:12:44;100683.28;;;4.85;83.80
68871;BME280;55906;52.278;6.808;2022-12-08T10:15:41;100675.00;;;4.94;83.01
68871;BME280;55906;52.278;6.808;2022-12-08T10:18:13;100684.59;;;4.95;82.60
68871;BME280;55906;52.278;6.808;2022-12-08T10:20:43;100670.19;;;5.03;82.93
68871;BME280;55906;52.278;6.808;2022-12-08T10:23:21;100672.03;;;5.05;82.25
68871;BME280;55906;52.278;6.808;2022-12-08T10:25:56;100672.13;;;5.07;82.23
68871;BME280;55906;52.278;6.808;2022-12-08T10:28:24;100664.34;;;5.08;81.53
68871;BME280;55906;52.278;6.808;2022-12-08T10:30:50;100664.63;;;5.14;82.50
68871;BME280;55906;52.278;6.808;2022-12-08T10:33:20;100665.88;;;5.23;81.89
68871;BME280;55906;52.278;6.808;2022-12-08T10:35:48;100661.50;;;5.22;81.51
68871;BME280;55906;52.278;6.808;2022-12-08T10:38:19;100665.06;;;5.24;81.46
68871;BME280;55906;52.278;6.808;2022-12-08T10:40:47;100658.41;;;5.30;81.44
68871;BME280;55906;52.278;6.808;2022-12-08T10:43:17;100653.50;;;5.38;81.19
68871;BME280;55906;52.278;6.808;2022-12-08T10:45:46;100653.38;;;5.35;80.98
68871;BME280;55906;52.278;6.808;2022-12-08T10:48:15;100649.88;;;5.34;81.12
68871;BME280;55906;52.278;6.808;2022-12-08T10:50:44;100643.28;;;5.42;81.78
68871;BME280;55906;52.278;6.808;2022-12-08T10:53:14;100643.59;;;5.50;81.16
68871;BME280;55906;52.278;6.808;2022-12-08T10:55:44;100651.16;;;5.44;81.17
68871;BME280;55906;52.278;6.808;2022-12-08T10:58:29;100642.44;;;5.43;81.70
68871;BME280;55906;52.278;6.808;2022-12-08T11:01:00;100648.69;;;5.47;81.55
68871;BME280;55906;52.278;6.808;2022-12-08T11:03:30;100640.94;;;5.49;80.69
68871;BME280;55906;52.278;6.808;2022-12-08T11:05:59;100643.66;;;5.52;80.50
68871;BME280;55906;52.278;6.808;2022-12-08T11:08:27;100638.38;;;5.50;80.89
68871;BME280;55906;52.278;6.808;2022-12-08T11:10:55;100646.22;;;5.50;80.47
68871;BME280;55906;52.278;6.808;2022-12-08T11:13:24;100644.44;;;5.49;80.80
68871;BME280;55906;52.278;6.808;2022-12-08T11:15:52;100647.22;;;5.54;80.29
68871;BME280;55906;52.278;6.808;2022-12-08T11:18:24;100648.56;;;5.44;80.89
68871;BME280;55906;52.278;6.808;2022-12-08T11:20:59;100645.94;;;5.44;80.99
68871;BME280;55906;52.278;6.808;2022-12-08T11:23:28;100641.69;;;5.46;80.94
68871;BME280;55906;52.278;6.808;2022-12-08T11:26:00;100647.06;;;5.30;81.46
68871;BME280;55906;52.278;6.808;2022-12-08T11:28:28;100643.16;;;5.39;81.58
68871;BME280;55906;52.278;6.808;2022-12-08T11:30:59;100642.81;;;5.32;81.54
68871;BME280;55906;52.278;6.808;2022-12-08T11:33:29;100642.38;;;5.42;82.07
68871;BME280;55906;52.278;6.808;2022-12-08T11:35:59;100636.00;;;5.35;81.21
68871;BME280;55906;52.278;6.808;2022-12-08T11:38:28;100648.81;;;5.50;81.39
68871;BME280;55906;52.278;6.808;2022-12-08T11:40:59;100649.63;;;5.49;80.79
68871;BME280;55906;52.278;6.808;2022-12-08T11:43:34;100651.69;;;5.56;81.05
68871;BME280;55906;52.278;6.808;2022-12-08T11:46:04;100639.97;;;5.67;80.51
68871;BME280;55906;52.278;6.808;2022-12-08T11:48:36;100639.84;;;5.64;80.11
68871;BME280;55906;52.278;6.808;2022-12-08T11:51:11;100636.78;;;5.74;80.06
68871;BME280;55906;52.278;6.808;2022-12-08T11:53:43;100642.13;;;5.77;80.50
68871;BME280;55906;52.278;6.808;2022-12-08T11:56:18;100640.88;;;5.68;80.08
68871;BME280;55906;52.278;6.808;2022-12-08T11:58:48;100638.19;;;5.66;80.06
68871;BME280;55906;52.278;6.808;2022-12-08T12:01:19;100639.28;;;5.71;80.72
68871;BME280;55906;52.278;6.808;2022-12-08T12:03:52;100641.69;;;5.67;80.53
68871;BME280;55906;52.278;6.808;2022-12-08T12:06:30;100638.25;;;5.68;80.18
68871;BME280;55906;52.278;6.808;2022-12-08T12:09:08;100638.31;;;5.69;80.05
68871;BME280;55906;52.278;6.808;2022-12-08T12:11:47;100639.59;;;5.79;80.51
68871;BME280;55906;52.278;6.808;2022-12-08T12:17:43;100643.28;;;5.84;79.90
68871;BME280;55906;52.278;6.808;2022-12-08T12:20:16;100635.78;;;5.92;79.86
68871;BME280;55906;52.278;6.808;2022-12-08T12:22:47;100639.41;;;5.95;79.51
68871;BME280;55906;52.278;6.808;2022-12-08T12:25:18;100633.19;;;5.92;79.36
68871;BME280;55906;52.278;6.808;2022-12-08T12:27:47;100628.63;;;5.88;80.18
68871;BME280;55906;52.278;6.808;2022-12-08T12:30:20;100636.47;;;5.88;79.36
68871;BME280;55906;52.278;6.808;2022-12-08T12:32:51;100632.78;;;5.83;79.54
68871;BME280;55906;52.278;6.808;2022-12-08T12:35:24;100630.50;;;5.69;80.15
68871;BME280;55906;52.278;6.808;2022-12-08T12:37:55;100634.13;;;5.73;79.86
68871;BME280;55906;52.278;6.808;2022-12-08T12:40:24;100631.94;;;5.84;79.06
68871;BME280;55906;52.278;6.808;2022-12-08T12:43:23;100634.31;;;5.77;78.65
68871;BME280;55906;52.278;6.808;2022-12-08T12:46:37;100626.53;;;5.79;78.81
68871;BME280;55906;52.278;6.808;2022-12-08T12:52:43;100618.06;;;5.85;79.38
68871;BME280;55906;52.278;6.808;2022-12-08T12:55:50;100619.06;;;5.88;78.41
68871;BME280;55906;52.278;6.808;2022-12-08T12:58:33;100618.91;;;5.84;77.89
68871;BME280;55906;52.278;6.808;2022-12-08T13:04:31;100619.06;;;5.88;78.18
68871;BME280;55906;52.278;6.808;2022-12-08T13:06:59;100612.09;;;5.87;78.59
68871;BME280;55906;52.278;6.808;2022-12-08T13:09:30;100614.97;;;5.93;78.44
68871;BME280;55906;52.278;6.808;2022-12-08T13:12:00;100610.69;;;5.95;79.06
68871;BME280;55906;52.278;6.808;2022-12-08T13:14:36;100605.84;;;6.04;79.08
68871;BME280;55906;52.278;6.808;2022-12-08T13:17:08;100611.06;;;6.04;78.14
68871;BME280;55906;52.278;6.808;2022-12-08T13:19:37;100605.72;;;6.01;78.10
68871;BME280;55906;52.278;6.808;2022-12-08T13:25:45;100601.16;;;6.18;77.65
68871;BME280;55906;52.278;6.808;2022-12-08T13:28:21;100600.81;;;6.09;78.24
68871;BME280;55906;52.278;6.808;2022-12-08T13:30:51;100601.38;;;6.02;77.36